createdAt,value
2018-04-08T00:00:02.757Z,997.2
2018-04-08T00:01:04.102Z,997.2
2018-04-08T00:02:05.460Z,997.2
2018-04-08T00:03:06.823Z,997.2
2018-04-08T00:04:08.176Z,997.2
2018-04-08T00:05:09.546Z,997.2
2018-04-08T00:06:10.900Z,997.1
2018-04-08T00:07:12.263Z,997.1
2018-04-08T00:08:13.622Z,997.1
2018-04-08T00:09:14.976Z,997.2
2018-04-08T00:10:16.331Z,997.2
2018-04-08T00:11:17.696Z,997.1
2018-04-08T00:12:19.052Z,997.1
2018-04-08T00:13:20.409Z,997.1
2018-04-08T00:14:21.771Z,997.2
2018-04-08T00:15:23.126Z,997.1
2018-04-08T00:16:24.485Z,997.2
2018-04-08T00:17:25.862Z,997.2
2018-04-08T00:18:27.228Z,997.1
2018-04-08T00:19:28.583Z,997.1
2018-04-08T00:20:29.945Z,997.2
2018-04-08T00:21:31.303Z,997.1
2018-04-08T00:22:32.662Z,997.1
2018-04-08T00:23:34.024Z,997.1
2018-04-08T00:24:35.385Z,997.1
2018-04-08T00:25:36.737Z,997.2
2018-04-08T00:26:38.086Z,997.1
2018-04-08T00:27:39.443Z,997.0
2018-04-08T00:28:40.814Z,997.1
2018-04-08T00:29:42.166Z,997.0
2018-04-08T00:30:43.531Z,997.1
2018-04-08T00:31:44.886Z,997.0
2018-04-08T00:32:46.250Z,997.0
2018-04-08T00:33:47.602Z,997.1
2018-04-08T00:34:48.956Z,996.9
2018-04-08T00:35:50.324Z,997.0
2018-04-08T00:36:51.687Z,996.9
2018-04-08T00:37:53.041Z,996.9
2018-04-08T00:38:55.368Z,996.9
2018-04-08T00:39:56.737Z,996.9
2018-04-08T00:40:58.093Z,996.9
2018-04-08T00:41:59.456Z,996.8
2018-04-08T00:43:00.817Z,996.8
2018-04-08T00:44:02.178Z,996.9
2018-04-08T00:45:03.536Z,996.9
2018-04-08T00:46:04.898Z,996.8
2018-04-08T00:47:06.268Z,996.7
2018-04-08T00:48:07.622Z,996.7
2018-04-08T00:49:08.986Z,996.7
2018-04-08T00:50:10.347Z,996.7
2018-04-08T00:51:11.704Z,996.7
2018-04-08T00:52:13.073Z,996.7
2018-04-08T00:53:14.423Z,996.7
2018-04-08T00:54:15.788Z,996.7
2018-04-08T00:55:17.144Z,996.6
2018-04-08T00:56:18.498Z,996.7
2018-04-08T00:57:19.861Z,996.6
2018-04-08T00:58:21.224Z,996.7
2018-04-08T00:59:22.575Z,996.7
2018-04-08T01:00:23.951Z,996.6
2018-04-08T01:01:25.312Z,996.6
2018-04-08T01:02:26.668Z,996.6
2018-04-08T01:03:28.023Z,996.6
2018-04-08T01:04:29.380Z,996.7
2018-04-08T01:05:30.745Z,996.6
2018-04-08T01:06:32.100Z,996.6
2018-04-08T01:07:33.473Z,996.6
2018-04-08T01:08:34.837Z,996.7
2018-04-08T01:09:36.190Z,996.6
2018-04-08T01:10:37.549Z,996.6
2018-04-08T01:11:38.906Z,996.5
2018-04-08T01:12:40.262Z,996.6
2018-04-08T01:13:41.623Z,996.6
2018-04-08T01:14:42.986Z,996.5
2018-04-08T01:15:44.337Z,996.6
2018-04-08T01:16:45.700Z,996.5
2018-04-08T01:17:47.059Z,996.5
2018-04-08T01:18:48.419Z,996.5
2018-04-08T01:19:49.776Z,996.5
2018-04-08T01:20:51.138Z,996.4
2018-04-08T01:21:52.502Z,996.5
2018-04-08T01:22:53.865Z,996.5
2018-04-08T01:23:55.223Z,996.5
2018-04-08T01:24:56.581Z,996.5
2018-04-08T01:25:57.953Z,996.5
2018-04-08T01:26:59.307Z,996.5
2018-04-08T01:28:00.672Z,996.5
2018-04-08T01:29:02.035Z,996.5
2018-04-08T01:30:03.396Z,996.5
2018-04-08T01:31:04.746Z,996.5
2018-04-08T01:32:06.101Z,996.5
2018-04-08T01:33:07.459Z,996.4
2018-04-08T01:34:08.826Z,996.5
2018-04-08T01:35:10.184Z,996.5
2018-04-08T01:36:11.547Z,996.5
2018-04-08T01:37:12.903Z,996.5
2018-04-08T01:38:14.258Z,996.6
2018-04-08T01:39:15.620Z,996.5
2018-04-08T01:40:16.967Z,996.6
2018-04-08T01:41:18.330Z,996.6
2018-04-08T01:42:19.694Z,996.6
2018-04-08T01:43:21.056Z,996.6
2018-04-08T01:44:22.401Z,996.6
2018-04-08T01:45:23.766Z,996.6
2018-04-08T01:46:25.127Z,996.6
2018-04-08T01:47:26.478Z,996.6
2018-04-08T01:48:27.831Z,996.6
2018-04-08T01:49:29.194Z,996.6
2018-04-08T01:50:30.553Z,996.6
2018-04-08T01:51:31.929Z,996.5
2018-04-08T01:52:33.289Z,996.6
2018-04-08T01:53:34.644Z,996.6
2018-04-08T01:54:35.991Z,996.6
2018-04-08T01:55:37.360Z,996.6
2018-04-08T01:56:38.715Z,996.5
2018-04-08T01:57:40.070Z,996.5
2018-04-08T01:58:41.427Z,996.5
2018-04-08T01:59:42.789Z,996.5
2018-04-08T02:00:44.156Z,996.4
2018-04-08T02:01:45.512Z,996.5
2018-04-08T02:02:46.875Z,996.4
2018-04-08T02:03:48.233Z,996.5
2018-04-08T02:04:49.591Z,996.4
2018-04-08T02:05:50.946Z,996.4
2018-04-08T02:06:52.309Z,996.4
2018-04-08T02:07:53.664Z,996.4
2018-04-08T02:08:55.025Z,996.4
2018-04-08T02:09:56.385Z,996.4
2018-04-08T02:10:57.737Z,996.5
2018-04-08T02:11:59.097Z,996.4
2018-04-08T02:13:00.453Z,996.5
2018-04-08T02:14:01.816Z,996.5
2018-04-08T02:15:03.170Z,996.4
2018-04-08T02:16:04.527Z,996.5
2018-04-08T02:17:05.892Z,996.4
2018-04-08T02:18:07.249Z,996.4
2018-04-08T02:19:08.606Z,996.5
2018-04-08T02:20:09.966Z,996.5
2018-04-08T02:21:11.327Z,996.4
2018-04-08T02:22:12.677Z,996.4
2018-04-08T02:23:14.037Z,996.4
2018-04-08T02:24:15.399Z,996.3
2018-04-08T02:25:16.748Z,996.4
2018-04-08T02:26:18.112Z,996.4
2018-04-08T02:27:19.470Z,996.4
2018-04-08T02:28:20.826Z,996.4
2018-04-08T02:29:22.189Z,996.4
2018-04-08T02:30:23.545Z,996.4
2018-04-08T02:31:24.904Z,996.4
2018-04-08T02:32:26.261Z,996.4
2018-04-08T02:33:27.623Z,996.4
2018-04-08T02:34:28.986Z,996.4
2018-04-08T02:35:30.344Z,996.4
2018-04-08T02:36:31.701Z,996.4
2018-04-08T02:37:33.055Z,996.4
2018-04-08T02:38:34.412Z,996.5
2018-04-08T02:39:35.772Z,996.4
2018-04-08T02:40:37.132Z,996.4
2018-04-08T02:41:38.482Z,996.4
2018-04-08T02:42:39.835Z,996.4
2018-04-08T02:43:41.192Z,996.5
2018-04-08T02:44:42.550Z,996.4
2018-04-08T02:45:43.903Z,996.5
2018-04-08T02:46:45.269Z,996.5
2018-04-08T02:47:46.622Z,996.5
2018-04-08T02:48:47.982Z,996.4
2018-04-08T02:49:49.339Z,996.4
2018-04-08T02:50:50.692Z,996.4
2018-04-08T02:51:52.053Z,996.4
2018-04-08T02:52:53.409Z,996.4
2018-04-08T02:53:54.769Z,996.4
2018-04-08T02:54:56.128Z,996.4
2018-04-08T02:55:57.488Z,996.4
2018-04-08T02:56:58.847Z,996.4
2018-04-08T02:58:00.204Z,996.4
2018-04-08T02:59:01.557Z,996.4
2018-04-08T03:00:02.922Z,996.4
2018-04-08T03:01:04.279Z,996.3
2018-04-08T03:02:05.629Z,996.3
2018-04-08T03:03:06.995Z,996.4
2018-04-08T03:04:08.364Z,996.3
2018-04-08T03:05:09.727Z,996.4
2018-04-08T03:06:11.086Z,996.4
2018-04-08T03:07:12.436Z,996.4
2018-04-08T03:08:13.785Z,996.4
2018-04-08T03:09:15.143Z,996.4
2018-04-08T03:10:16.502Z,996.5
2018-04-08T03:11:17.864Z,996.4
2018-04-08T03:12:19.218Z,996.4
2018-04-08T03:13:20.580Z,996.4
2018-04-08T03:14:21.931Z,996.4
2018-04-08T03:15:23.336Z,996.5
2018-04-08T03:16:24.698Z,996.4
2018-04-08T03:17:26.073Z,996.4
2018-04-08T03:18:27.449Z,996.4
2018-04-08T03:19:28.800Z,996.4
2018-04-08T03:20:30.154Z,996.4
2018-04-08T03:21:31.563Z,996.4
2018-04-08T03:22:32.914Z,996.4
2018-04-08T03:23:34.351Z,996.4
2018-04-08T03:24:35.709Z,996.4
2018-04-08T03:25:37.070Z,996.4
2018-04-08T03:26:38.433Z,996.4
2018-04-08T03:27:39.808Z,996.3
2018-04-08T03:28:41.169Z,996.4
2018-04-08T03:29:42.522Z,996.3
2018-04-08T03:30:43.886Z,996.2
2018-04-08T03:31:45.239Z,996.2
2018-04-08T03:32:46.590Z,996.3
2018-04-08T03:33:47.949Z,996.3
2018-04-08T03:34:49.319Z,996.2
2018-04-08T03:35:51.510Z,996.1
2018-04-08T03:36:52.870Z,996.2
2018-04-08T03:37:54.225Z,996.2
2018-04-08T03:38:55.586Z,996.2
2018-04-08T03:39:56.941Z,996.1
2018-04-08T03:40:58.299Z,996.2
2018-04-08T03:41:59.655Z,996.1
2018-04-08T03:43:01.005Z,996.1
2018-04-08T03:44:02.366Z,996.1
2018-04-08T03:45:03.734Z,996.1
2018-04-08T03:46:05.094Z,996.1
2018-04-08T03:47:06.450Z,996.1
2018-04-08T03:48:07.807Z,996.1
2018-04-08T03:49:09.162Z,996.1
2018-04-08T03:50:10.532Z,996.1
2018-04-08T03:51:11.884Z,996.0
2018-04-08T03:52:13.245Z,996.0
2018-04-08T03:53:14.605Z,996.0
2018-04-08T03:54:15.960Z,996.0
2018-04-08T03:55:17.311Z,996.0
2018-04-08T03:56:18.675Z,996.0
2018-04-08T03:57:20.040Z,996.0
2018-04-08T03:58:21.400Z,996.0
2018-04-08T03:59:22.754Z,995.9
2018-04-08T04:00:24.128Z,995.9
2018-04-08T04:01:25.490Z,995.9
2018-04-08T04:02:26.862Z,995.9
2018-04-08T04:03:28.219Z,996.0
2018-04-08T04:04:29.582Z,996.0
2018-04-08T04:05:30.949Z,996.1
2018-04-08T04:06:32.303Z,996.1
2018-04-08T04:07:33.671Z,996.0
2018-04-08T04:08:35.019Z,996.0
2018-04-08T04:09:36.376Z,996.0
2018-04-08T04:10:37.740Z,996.0
2018-04-08T04:11:39.086Z,996.0
2018-04-08T04:12:40.464Z,996.0
2018-04-08T04:13:41.825Z,996.0
2018-04-08T04:14:43.187Z,996.0
2018-04-08T04:15:44.548Z,996.0
2018-04-08T04:16:45.912Z,996.0
2018-04-08T04:17:47.284Z,996.0
2018-04-08T04:18:48.647Z,995.9
2018-04-08T04:19:50.016Z,996.0
2018-04-08T04:20:51.377Z,996.0
2018-04-08T04:21:52.786Z,996.0
2018-04-08T04:22:54.165Z,996.0
2018-04-08T04:23:55.521Z,996.0
2018-04-08T04:24:56.892Z,996.0
2018-04-08T04:25:58.246Z,996.0
2018-04-08T04:26:59.606Z,996.0
2018-04-08T04:28:01.019Z,996.0
2018-04-08T04:29:02.376Z,996.1
2018-04-08T04:30:03.734Z,996.0
2018-04-08T04:31:05.087Z,996.1
2018-04-08T04:32:06.456Z,996.1
2018-04-08T04:33:07.823Z,996.1
2018-04-08T04:34:09.190Z,996.1
2018-04-08T04:35:10.557Z,996.1
2018-04-08T04:36:11.932Z,996.1
2018-04-08T04:37:13.311Z,996.1
2018-04-08T04:38:14.681Z,996.1
2018-04-08T04:39:16.040Z,996.1
2018-04-08T04:40:17.402Z,996.1
2018-04-08T04:41:18.775Z,996.1
2018-04-08T04:42:20.147Z,996.0
2018-04-08T04:43:21.518Z,996.1
2018-04-08T04:44:22.863Z,996.1
2018-04-08T04:45:24.760Z,996.1
2018-04-08T04:46:26.126Z,996.1
2018-04-08T04:47:27.497Z,996.1
2018-04-08T04:48:28.869Z,996.1
2018-04-08T04:49:30.238Z,996.1
2018-04-08T04:50:31.596Z,996.2
2018-04-08T04:51:32.965Z,996.2
2018-04-08T04:52:34.322Z,996.2
2018-04-08T04:53:35.712Z,996.3
2018-04-08T04:54:37.070Z,996.2
2018-04-08T04:55:38.431Z,996.2
2018-04-08T04:56:39.796Z,996.2
2018-04-08T04:57:41.175Z,996.2
2018-04-08T04:58:42.549Z,996.2
2018-04-08T04:59:43.907Z,996.1
2018-04-08T05:00:45.269Z,996.2
2018-04-08T05:01:46.626Z,996.2
2018-04-08T05:02:47.986Z,996.2
2018-04-08T05:03:49.361Z,996.3
2018-04-08T05:04:50.723Z,996.2
2018-04-08T05:05:52.086Z,996.2
2018-04-08T05:06:53.470Z,996.3
2018-04-08T05:07:54.881Z,996.3
2018-04-08T05:08:56.252Z,996.3
2018-04-08T05:09:57.643Z,996.3
2018-04-08T05:10:59.012Z,996.3
2018-04-08T05:12:00.399Z,996.3
2018-04-08T05:13:01.761Z,996.3
2018-04-08T05:14:03.128Z,996.3
2018-04-08T05:15:04.493Z,996.3
2018-04-08T05:16:05.873Z,996.3
2018-04-08T05:17:07.237Z,996.3
2018-04-08T05:18:08.606Z,996.3
2018-04-08T05:19:09.968Z,996.3
2018-04-08T05:20:11.340Z,996.3
2018-04-08T05:21:12.701Z,996.3
2018-04-08T05:22:14.062Z,996.3
2018-04-08T05:23:15.480Z,996.3
2018-04-08T05:24:16.838Z,996.4
2018-04-08T05:25:18.187Z,996.3
2018-04-08T05:26:19.572Z,996.4
2018-04-08T05:27:20.942Z,996.5
2018-04-08T05:28:22.301Z,996.5
2018-04-08T05:29:23.661Z,996.5
2018-04-08T05:30:25.020Z,996.6
2018-04-08T05:31:26.405Z,996.6
2018-04-08T05:32:27.764Z,996.6
2018-04-08T05:33:29.127Z,996.6
2018-04-08T05:34:30.482Z,996.6
2018-04-08T05:35:31.862Z,996.6
2018-04-08T05:36:33.227Z,996.6
2018-04-08T05:37:34.572Z,996.6
2018-04-08T05:38:35.935Z,996.7
2018-04-08T05:39:37.296Z,996.7
2018-04-08T05:40:38.651Z,996.7
2018-04-08T05:41:40.015Z,996.8
2018-04-08T05:42:41.376Z,996.8
2018-04-08T05:43:42.734Z,996.7
2018-04-08T05:44:44.088Z,996.8
2018-04-08T05:45:45.461Z,996.8
2018-04-08T05:46:46.821Z,996.8
2018-04-08T05:47:48.180Z,996.9
2018-04-08T05:48:49.543Z,996.9
2018-04-08T05:49:50.902Z,996.9
2018-04-08T05:50:52.265Z,996.9
2018-04-08T05:51:53.622Z,996.8
2018-04-08T05:52:54.970Z,996.9
2018-04-08T05:53:56.334Z,996.9
2018-04-08T05:54:57.699Z,996.9
2018-04-08T05:55:59.071Z,996.9
2018-04-08T05:57:00.419Z,996.9
2018-04-08T05:58:01.830Z,996.9
2018-04-08T05:59:03.159Z,996.9
2018-04-08T06:00:04.513Z,996.9
2018-04-08T06:01:05.876Z,996.8
2018-04-08T06:02:07.253Z,996.9
2018-04-08T06:03:08.610Z,996.9
2018-04-08T06:04:09.974Z,996.9
2018-04-08T06:05:11.338Z,996.9
2018-04-08T06:06:12.708Z,996.9
2018-04-08T06:07:14.084Z,996.9
2018-04-08T06:08:15.464Z,996.9
2018-04-08T06:09:16.849Z,996.9
2018-04-08T06:10:18.214Z,996.9
2018-04-08T06:11:19.590Z,996.9
2018-04-08T06:12:20.944Z,996.9
2018-04-08T06:13:22.309Z,996.9
2018-04-08T06:14:23.662Z,996.8
2018-04-08T06:15:25.038Z,996.8
2018-04-08T06:16:26.419Z,996.8
2018-04-08T06:17:27.777Z,996.8
2018-04-08T06:18:29.141Z,996.8
2018-04-08T06:19:30.511Z,996.8
2018-04-08T06:20:31.881Z,996.8
2018-04-08T06:21:33.240Z,996.9
2018-04-08T06:22:34.606Z,996.8
2018-04-08T06:23:35.968Z,996.7
2018-04-08T06:24:37.333Z,996.7
2018-04-08T06:25:38.693Z,996.7
2018-04-08T06:26:40.019Z,996.7
2018-04-08T06:27:41.371Z,996.8
2018-04-08T06:28:42.738Z,996.8
2018-04-08T06:29:44.105Z,996.8
2018-04-08T06:30:45.473Z,996.7
2018-04-08T06:31:46.836Z,996.7
2018-04-08T06:32:48.206Z,996.7
2018-04-08T06:33:49.570Z,996.8
2018-04-08T06:34:50.925Z,996.9
2018-04-08T06:35:52.297Z,996.8
2018-04-08T06:36:53.666Z,996.9
2018-04-08T06:37:55.046Z,996.9
2018-04-08T06:38:56.407Z,996.9
2018-04-08T06:39:57.776Z,996.9
2018-04-08T06:40:59.135Z,996.9
2018-04-08T06:42:00.500Z,996.9
2018-04-08T06:43:01.860Z,996.9
2018-04-08T06:44:03.236Z,996.9
2018-04-08T06:45:04.611Z,996.9
2018-04-08T06:46:05.982Z,997.0
2018-04-08T06:47:07.350Z,997.0
2018-04-08T06:48:08.721Z,997.0
2018-04-08T06:49:10.080Z,997.0
2018-04-08T06:50:11.448Z,997.0
2018-04-08T06:51:12.815Z,996.9
2018-04-08T06:52:14.186Z,997.0
2018-04-08T06:53:15.549Z,997.1
2018-04-08T06:54:16.916Z,997.0
2018-04-08T06:55:18.273Z,997.1
2018-04-08T06:56:19.645Z,997.3
2018-04-08T06:57:21.007Z,997.4
2018-04-08T06:58:22.388Z,997.1
2018-04-08T06:59:23.738Z,997.1
2018-04-08T07:00:25.103Z,997.0
2018-04-08T07:01:26.468Z,997.0
2018-04-08T07:02:27.835Z,997.0
2018-04-08T07:03:29.202Z,997.1
2018-04-08T07:04:30.570Z,997.2
2018-04-08T07:05:31.939Z,997.2
2018-04-08T07:06:33.324Z,997.2
2018-04-08T07:07:34.697Z,997.1
2018-04-08T07:08:36.060Z,997.1
2018-04-08T07:09:37.431Z,997.1
2018-04-08T07:10:38.799Z,997.0
2018-04-08T07:11:40.167Z,997.1
2018-04-08T07:12:41.533Z,997.0
2018-04-08T07:13:42.905Z,996.9
2018-04-08T07:14:44.285Z,996.9
2018-04-08T07:15:45.650Z,996.8
2018-04-08T07:16:47.017Z,996.9
2018-04-08T07:17:48.396Z,996.9
2018-04-08T07:18:49.760Z,997.0
2018-04-08T07:19:51.137Z,997.0
2018-04-08T07:20:52.501Z,997.1
2018-04-08T07:21:53.869Z,997.1
2018-04-08T07:22:55.238Z,997.2
2018-04-08T07:23:56.613Z,997.1
2018-04-08T07:24:57.980Z,997.2
2018-04-08T07:25:59.353Z,997.3
2018-04-08T07:27:00.727Z,997.3
2018-04-08T07:28:02.097Z,997.2
2018-04-08T07:29:03.476Z,997.1
2018-04-08T07:30:04.844Z,997.1
2018-04-08T07:31:06.223Z,997.1
2018-04-08T07:32:07.586Z,997.2
2018-04-08T07:33:08.962Z,997.3
2018-04-08T07:34:10.332Z,997.2
2018-04-08T07:35:11.701Z,997.2
2018-04-08T07:36:13.073Z,997.2
2018-04-08T07:37:14.460Z,997.1
2018-04-08T07:38:15.836Z,997.3
2018-04-08T07:39:17.201Z,997.3
2018-04-08T07:40:18.569Z,997.3
2018-04-08T07:41:19.944Z,997.3
2018-04-08T07:42:21.335Z,997.3
2018-04-08T07:43:22.707Z,997.4
2018-04-08T07:44:24.710Z,997.1
2018-04-08T07:45:26.087Z,997.3
2018-04-08T07:46:27.465Z,997.3
2018-04-08T07:47:28.846Z,997.4
2018-04-08T07:48:30.215Z,997.4
2018-04-08T07:49:31.716Z,997.0
2018-04-08T07:50:33.094Z,997.3
2018-04-08T07:51:34.462Z,997.3
2018-04-08T07:52:35.829Z,997.4
2018-04-08T07:53:37.206Z,997.3
2018-04-08T07:54:38.589Z,997.3
2018-04-08T07:55:39.978Z,997.3
2018-04-08T07:56:41.355Z,997.3
2018-04-08T07:57:42.744Z,997.1
2018-04-08T07:58:44.119Z,997.2
2018-04-08T07:59:45.497Z,997.3
2018-04-08T08:00:46.871Z,997.4
2018-04-08T08:01:48.250Z,997.4
2018-04-08T08:02:49.634Z,997.4
2018-04-08T08:03:51.012Z,997.1
2018-04-08T08:04:52.390Z,997.2
2018-04-08T08:05:53.767Z,997.3
2018-04-08T08:06:55.153Z,997.2
2018-04-08T08:07:56.529Z,997.2
2018-04-08T08:08:57.907Z,997.2
2018-04-08T08:09:59.280Z,997.2
2018-04-08T08:11:00.676Z,997.3
2018-04-08T08:12:02.074Z,997.3
2018-04-08T08:13:03.460Z,997.3
2018-04-08T08:14:04.844Z,997.3
2018-04-08T08:15:06.229Z,997.2
2018-04-08T08:16:07.609Z,997.1
2018-04-08T08:17:08.996Z,997.3
2018-04-08T08:18:10.374Z,997.3
2018-04-08T08:19:11.748Z,997.3
2018-04-08T08:20:13.127Z,997.3
2018-04-08T08:21:14.513Z,997.2
2018-04-08T08:22:15.900Z,997.3
2018-04-08T08:23:17.273Z,997.3
2018-04-08T08:24:18.655Z,997.2
2018-04-08T08:25:20.040Z,997.3
2018-04-08T08:26:21.423Z,997.2
2018-04-08T08:27:22.799Z,997.3
2018-04-08T08:28:24.186Z,997.3
2018-04-08T08:29:25.572Z,997.3
2018-04-08T08:30:26.956Z,997.3
2018-04-08T08:31:28.333Z,997.3
2018-04-08T08:32:29.716Z,997.3
2018-04-08T08:33:31.095Z,997.4
2018-04-08T08:34:32.489Z,997.3
2018-04-08T08:35:33.866Z,997.1
2018-04-08T08:36:35.261Z,997.1
2018-04-08T08:37:36.641Z,997.1
2018-04-08T08:38:38.014Z,997.0
2018-04-08T08:39:39.402Z,997.1
2018-04-08T08:40:40.796Z,997.3
2018-04-08T08:41:42.231Z,997.4
2018-04-08T08:42:43.520Z,997.3
2018-04-08T08:43:44.959Z,997.1
2018-04-08T08:44:46.236Z,997.3
2018-04-08T08:45:47.612Z,997.3
2018-04-08T08:46:48.989Z,997.1
2018-04-08T08:47:50.380Z,997.0
2018-04-08T08:48:51.768Z,996.8
2018-04-08T08:49:53.133Z,996.9
2018-04-08T08:50:54.511Z,996.8
2018-04-08T08:51:55.895Z,996.9
2018-04-08T08:52:57.275Z,996.9
2018-04-08T08:53:58.667Z,997.2
2018-04-08T08:55:00.065Z,997.1
2018-04-08T08:56:01.427Z,997.2
2018-04-08T08:57:02.799Z,997.0
2018-04-08T08:58:04.177Z,997.0
2018-04-08T08:59:05.551Z,996.8
2018-04-08T09:00:06.938Z,997.2
2018-04-08T09:01:08.313Z,997.4
2018-04-08T09:02:09.687Z,997.4
2018-04-08T09:03:11.074Z,997.3
2018-04-08T09:04:12.449Z,997.1
2018-04-08T09:05:13.828Z,997.2
2018-04-08T09:06:15.218Z,997.4
2018-04-08T09:07:16.595Z,997.0
2018-04-08T09:08:17.982Z,997.2
2018-04-08T09:09:19.349Z,997.1
2018-04-08T09:10:20.850Z,997.3
2018-04-08T09:11:22.231Z,997.1
2018-04-08T09:12:23.607Z,997.1
2018-04-08T09:13:24.985Z,997.3
2018-04-08T09:14:26.375Z,997.2
2018-04-08T09:15:27.782Z,997.1
2018-04-08T09:16:29.167Z,997.2
2018-04-08T09:17:30.557Z,997.2
2018-04-08T09:18:31.927Z,997.2
2018-04-08T09:19:33.307Z,997.2
2018-04-08T09:20:34.696Z,997.2
2018-04-08T09:21:36.232Z,997.2
2018-04-08T09:22:37.614Z,997.2
2018-04-08T09:23:38.997Z,997.1
2018-04-08T09:24:40.408Z,997.2
2018-04-08T09:25:41.783Z,997.1
2018-04-08T09:26:43.208Z,997.0
2018-04-08T09:27:44.589Z,997.1
2018-04-08T09:28:45.965Z,997.0
2018-04-08T09:29:47.349Z,996.9
2018-04-08T09:30:48.725Z,996.9
2018-04-08T09:31:50.112Z,996.8
2018-04-08T09:32:51.508Z,996.9
2018-04-08T09:33:52.886Z,996.9
2018-04-08T09:34:54.273Z,996.9
2018-04-08T09:35:55.661Z,997.0
2018-04-08T09:36:57.038Z,997.0
2018-04-08T09:37:58.419Z,996.8
2018-04-08T09:38:59.795Z,997.0
2018-04-08T09:40:01.182Z,997.0
2018-04-08T09:41:02.600Z,997.0
2018-04-08T09:42:03.980Z,996.9
2018-04-08T09:43:05.386Z,996.7
2018-04-08T09:44:06.762Z,996.6
2018-04-08T09:45:08.153Z,996.9
2018-04-08T09:46:09.530Z,996.9
2018-04-08T09:47:10.915Z,997.0
2018-04-08T09:48:12.298Z,996.9
2018-04-08T09:49:13.691Z,996.9
2018-04-08T09:50:15.102Z,996.9
2018-04-08T09:51:16.484Z,996.9
2018-04-08T09:52:17.869Z,996.6
2018-04-08T09:53:19.260Z,996.8
2018-04-08T09:54:20.642Z,996.6
2018-04-08T09:55:22.300Z,996.7
2018-04-08T09:56:23.676Z,996.7
2018-04-08T09:57:25.068Z,996.7
2018-04-08T09:58:26.463Z,996.6
2018-04-08T09:59:27.845Z,996.6
2018-04-08T10:00:29.226Z,996.8
2018-04-08T10:01:30.617Z,996.6
2018-04-08T10:02:32.001Z,996.3
2018-04-08T10:03:33.394Z,996.2
2018-04-08T10:04:34.773Z,996.2
2018-04-08T10:05:36.222Z,996.7
2018-04-08T10:06:37.500Z,996.5
2018-04-08T10:07:38.888Z,996.6
2018-04-08T10:08:40.273Z,996.7
2018-04-08T10:09:41.655Z,996.4
2018-04-08T10:10:43.038Z,996.4
2018-04-08T10:11:44.421Z,996.2
2018-04-08T10:12:45.816Z,995.9
2018-04-08T10:13:47.193Z,996.0
2018-04-08T10:14:48.580Z,996.2
2018-04-08T10:15:49.956Z,996.7
2018-04-08T10:16:51.339Z,996.5
2018-04-08T10:17:52.725Z,996.6
2018-04-08T10:18:54.118Z,996.5
2018-04-08T10:19:55.496Z,996.6
2018-04-08T10:20:56.880Z,996.1
2018-04-08T10:21:58.269Z,996.4
2018-04-08T10:22:59.649Z,996.2
2018-04-08T10:24:01.026Z,996.0
2018-04-08T10:25:02.412Z,996.3
2018-04-08T10:26:03.792Z,996.4
2018-04-08T10:27:05.175Z,996.4
2018-04-08T10:28:06.555Z,996.2
2018-04-08T10:29:08.031Z,996.5
2018-04-08T10:30:09.338Z,996.0
2018-04-08T10:31:10.724Z,996.4
2018-04-08T10:32:12.107Z,996.5
2018-04-08T10:33:13.497Z,996.2
2018-04-08T10:34:14.877Z,996.1
2018-04-08T10:35:16.261Z,996.0
2018-04-08T10:36:17.639Z,996.0
2018-04-08T10:37:19.040Z,996.0
2018-04-08T10:38:20.436Z,996.0
2018-04-08T10:39:21.809Z,995.9
2018-04-08T10:40:23.192Z,996.2
2018-04-08T10:41:24.597Z,995.8
2018-04-08T10:42:25.997Z,995.9
2018-04-08T10:43:27.387Z,996.2
2018-04-08T10:44:28.774Z,996.4
2018-04-08T10:45:30.160Z,996.6
2018-04-08T10:46:31.538Z,996.2
2018-04-08T10:47:32.933Z,996.4
2018-04-08T10:48:34.320Z,995.9
2018-04-08T10:49:35.699Z,996.2
2018-04-08T10:50:37.077Z,995.9
2018-04-08T10:51:38.467Z,996.1
2018-04-08T10:52:40.682Z,996.1
2018-04-08T10:53:42.724Z,995.7
2018-04-08T10:54:44.117Z,995.8
2018-04-08T10:55:45.501Z,995.4
2018-04-08T10:56:46.883Z,995.9
2018-04-08T10:57:48.276Z,995.6
2018-04-08T10:58:49.671Z,995.8
2018-04-08T10:59:51.086Z,996.1
2018-04-08T11:00:52.457Z,996.2
2018-04-08T11:01:53.848Z,996.1
2018-04-08T11:02:55.233Z,996.1
2018-04-08T11:03:56.617Z,996.3
2018-04-08T11:04:58.053Z,996.0
2018-04-08T11:05:59.386Z,995.8
2018-04-08T11:07:00.766Z,995.9
2018-04-08T11:08:02.151Z,995.4
2018-04-08T11:09:03.534Z,995.3
2018-04-08T11:10:04.917Z,994.9
2018-04-08T11:11:06.305Z,995.4
2018-04-08T11:12:07.688Z,995.5
2018-04-08T11:13:09.067Z,995.7
2018-04-08T11:14:10.447Z,995.7
2018-04-08T11:15:11.835Z,995.6
2018-04-08T11:16:13.224Z,995.6
2018-04-08T11:17:15.056Z,995.6
2018-04-08T11:18:16.445Z,996.0
2018-04-08T11:19:18.222Z,996.1
2018-04-08T11:20:19.603Z,995.7
2018-04-08T11:21:20.988Z,995.8
2018-04-08T11:22:22.378Z,995.7
2018-04-08T11:23:23.772Z,995.6
2018-04-08T11:24:25.163Z,995.7
2018-04-08T11:25:26.533Z,995.9
2018-04-08T11:26:27.921Z,995.6
2018-04-08T11:27:29.311Z,995.5
2018-04-08T11:28:30.687Z,995.5
2018-04-08T11:29:32.077Z,995.7
2018-04-08T11:30:33.460Z,995.5
2018-04-08T11:31:34.878Z,995.7
2018-04-08T11:32:36.250Z,995.6
2018-04-08T11:33:37.643Z,995.4
2018-04-08T11:34:39.048Z,995.4
2018-04-08T11:35:40.423Z,995.4
2018-04-08T11:36:41.819Z,995.4
2018-04-08T11:37:43.219Z,995.2
2018-04-08T11:38:44.624Z,995.5
2018-04-08T11:39:46.007Z,995.6
2018-04-08T11:40:47.389Z,995.6
2018-04-08T11:41:48.769Z,995.7
2018-04-08T11:42:50.152Z,995.3
2018-04-08T11:43:51.531Z,995.2
2018-04-08T11:44:52.923Z,995.3
2018-04-08T11:45:54.943Z,995.2
2018-04-08T11:46:56.331Z,995.2
2018-04-08T11:47:57.768Z,995.4
2018-04-08T11:48:59.147Z,995.6
2018-04-08T11:50:00.534Z,995.5
2018-04-08T11:51:01.919Z,995.1
2018-04-08T11:52:03.307Z,995.3
2018-04-08T11:53:04.693Z,995.1
2018-04-08T11:54:06.094Z,995.5
2018-04-08T11:55:07.476Z,995.0
2018-04-08T11:56:08.867Z,995.2
2018-04-08T11:57:10.264Z,995.2
2018-04-08T11:58:11.649Z,995.1
2018-04-08T11:59:13.053Z,995.3
2018-04-08T12:00:14.432Z,995.2
2018-04-08T12:01:15.813Z,995.3
2018-04-08T12:02:17.195Z,995.4
2018-04-08T12:03:18.590Z,995.3
2018-04-08T12:04:19.973Z,995.3
2018-04-08T12:05:21.357Z,995.0
2018-04-08T12:06:22.741Z,995.1
2018-04-08T12:07:24.137Z,995.2
2018-04-08T12:08:25.512Z,995.0
2018-04-08T12:09:26.893Z,995.2
2018-04-08T12:10:28.287Z,995.4
2018-04-08T12:11:29.668Z,995.2
2018-04-08T12:12:31.053Z,995.0
2018-04-08T12:13:32.466Z,994.9
2018-04-08T12:14:33.845Z,994.7
2018-04-08T12:15:35.233Z,994.8
2018-04-08T12:16:36.619Z,995.1
2018-04-08T12:17:38.001Z,995.1
2018-04-08T12:18:39.381Z,994.9
2018-04-08T12:19:40.765Z,995.1
2018-04-08T12:20:42.198Z,994.4
2018-04-08T12:21:43.556Z,994.7
2018-04-08T12:22:44.931Z,994.9
2018-04-08T12:23:46.326Z,994.8
2018-04-08T12:24:47.733Z,994.6
2018-04-08T12:25:49.112Z,994.7
2018-04-08T12:26:50.505Z,995.0
2018-04-08T12:27:51.887Z,995.0
2018-04-08T12:28:53.277Z,994.9
2018-04-08T12:29:54.655Z,994.9
2018-04-08T12:30:56.048Z,995.0
2018-04-08T12:31:57.438Z,994.6
2018-04-08T12:32:58.823Z,994.7
2018-04-08T12:34:00.211Z,994.7
2018-04-08T12:35:01.606Z,994.8
2018-04-08T12:36:02.987Z,994.9
2018-04-08T12:37:04.375Z,994.8
2018-04-08T12:38:05.752Z,994.8
2018-04-08T12:39:07.140Z,995.0
2018-04-08T12:40:08.524Z,994.7
2018-04-08T12:41:09.908Z,994.7
2018-04-08T12:42:11.292Z,994.7
2018-04-08T12:43:12.687Z,994.7
2018-04-08T12:44:14.069Z,994.9
2018-04-08T12:45:15.459Z,994.7
2018-04-08T12:46:16.835Z,994.6
2018-04-08T12:47:18.211Z,994.6
2018-04-08T12:48:19.601Z,994.7
2018-04-08T12:49:20.990Z,994.6
2018-04-08T12:50:22.384Z,994.4
2018-04-08T12:51:23.761Z,994.5
2018-04-08T12:52:25.150Z,994.8
2018-04-08T12:53:26.534Z,994.6
2018-04-08T12:54:27.915Z,994.6
2018-04-08T12:55:29.300Z,994.6
2018-04-08T12:56:30.685Z,994.4
2018-04-08T12:57:32.075Z,994.4
2018-04-08T12:58:33.451Z,994.8
2018-04-08T12:59:34.834Z,994.8
2018-04-08T13:00:36.216Z,994.7
2018-04-08T13:01:37.606Z,994.7
2018-04-08T13:02:38.989Z,994.6
2018-04-08T13:03:40.374Z,994.7
2018-04-08T13:04:41.767Z,994.4
2018-04-08T13:05:43.152Z,994.4
2018-04-08T13:06:44.534Z,994.4
2018-04-08T13:07:45.954Z,994.6
2018-04-08T13:08:47.298Z,994.5
2018-04-08T13:09:48.685Z,994.5